Time;durP1;ratioP1;P1;durP2;ratioP2;P2;SDS_P1;SDS_P2;PMS_P1;PMS_P2;Temp;Humidity;BMP_temperature;BMP_pressure;BME280_temperature;BME280_humidity;BME280_pressure;Samples;Min_cycle;Max_cycle;Signal;HPM_P1;HPM_P2
2023/09/15 00:01:33;;;;;;;2.20;1.93;;;22.20;99.90;;;;;;5088455;28;20436;-82
2023/09/15 00:04:03;;;;;;;2.00;1.80;;;22.20;99.90;;;;;;5088613;28;20432;-80
2023/09/15 00:06:29;;;;;;;2.43;2.23;;;22.20;99.90;;;;;;5086856;28;20649;-82
2023/09/15 00:08:55;;;;;;;2.20;1.93;;;22.20;99.90;;;;;;5086937;28;20440;-81
2023/09/15 00:11:22;;;;;;;2.63;1.87;;;22.20;99.90;;;;;;5087204;28;20429;-82
2023/09/15 00:13:48;;;;;;;2.43;2.07;;;22.10;99.90;;;;;;5086994;28;20957;-82
2023/09/15 00:16:13;;;;;;;2.57;2.13;;;22.10;99.90;;;;;;5086916;28;20451;-81
2023/09/15 00:18:41;;;;;;;2.90;2.13;;;22.10;99.90;;;;;;5088143;28;20597;-82
2023/09/15 00:21:09;;;;;;;2.17;1.90;;;22.10;99.90;;;;;;5086839;28;20544;-82
2023/09/15 00:23:37;;;;;;;2.70;2.30;;;22.10;99.90;;;;;;5086883;28;20456;-81
2023/09/15 00:26:03;;;;;;;2.53;2.17;;;22.00;99.90;;;;;;5086667;28;20813;-80
2023/09/15 00:28:29;;;;;;;2.33;2.13;;;22.00;99.90;;;;;;5086180;28;20421;-81
2023/09/15 00:30:57;;;;;;;2.90;2.60;;;22.00;99.90;;;;;;5086324;28;20553;-81
2023/09/15 00:33:23;;;;;;;2.37;1.87;;;22.00;99.90;;;;;;5086799;28;20189;-81
2023/09/15 00:35:48;;;;;;;2.70;2.20;;;22.00;99.90;;;;;;5087586;28;20485;-83
2023/09/15 00:38:14;;;;;;;2.77;2.47;;;21.90;99.90;;;;;;5088450;28;20189;-81
2023/09/15 00:40:39;;;;;;;4.30;2.20;;;21.90;99.90;;;;;;5087526;28;20607;-81
2023/09/15 00:43:05;;;;;;;2.67;2.30;;;22.00;99.90;;;;;;5086826;28;20200;-81
2023/09/15 00:45:31;;;;;;;2.53;2.33;;;21.90;99.90;;;;;;5087558;28;20671;-82
2023/09/15 00:47:57;;;;;;;2.50;2.20;;;21.90;99.90;;;;;;5086415;28;20219;-81
2023/09/15 00:50:31;;;;;;;2.30;2.00;;;21.90;99.90;;;;;;5086713;28;20456;-82
2023/09/15 00:53:09;;;;;;;3.10;2.53;;;21.90;99.90;;;;;;5087747;28;20396;-81
2023/09/15 00:55:35;;;;;;;2.80;2.37;;;21.90;99.90;;;;;;5085118;28;20444;-82
2023/09/15 00:58:03;;;;;;;3.93;2.53;;;21.90;99.90;;;;;;5087567;28;20467;-82
2023/09/15 01:00:30;;;;;;;2.70;2.27;;;21.90;99.90;;;;;;5085947;28;20469;-82
2023/09/15 01:02:56;;;;;;;2.17;1.97;;;21.90;99.90;;;;;;5087244;28;20765;-82
2023/09/15 01:05:24;;;;;;;2.67;2.13;;;21.90;99.90;;;;;;5085794;28;20443;-81
2023/09/15 01:07:52;;;;;;;3.73;2.93;;;21.90;99.90;;;;;;5086186;28;20419;-82
2023/09/15 01:10:19;;;;;;;3.17;2.77;;;21.90;99.90;;;;;;5085795;28;20453;-82
2023/09/15 01:12:46;;;;;;;3.17;2.53;;;21.90;99.90;;;;;;5086027;28;20552;-82
2023/09/15 01:15:12;;;;;;;3.13;2.83;;;21.90;99.90;;;;;;5085490;28;20449;-81
2023/09/15 01:18:02;;;;;;;3.07;2.77;;;21.90;99.90;;;;;;5085869;28;20957;-81
2023/09/15 01:21:14;;;;;;;4.07;2.70;;;21.90;99.90;;;;;;5086970;28;20484;-81
2023/09/15 01:24:00;;;;;;;2.80;2.50;;;21.90;99.90;;;;;;5087074;28;20427;-81
2023/09/15 01:26:40;;;;;;;2.70;2.50;;;21.90;99.90;;;;;;5087079;28;20421;-81
2023/09/15 01:29:30;;;;;;;2.47;2.27;;;21.90;99.90;;;;;;5085190;28;20425;-82
2023/09/15 01:31:59;;;;;;;2.80;2.43;;;21.90;99.90;;;;;;5085319;28;20417;-81
2023/09/15 01:34:24;;;;;;;3.33;2.80;;;21.90;99.90;;;;;;5085600;28;20944;-82
2023/09/15 01:36:53;;;;;;;2.43;2.23;;;21.90;99.90;;;;;;5086977;28;20465;-81
2023/09/15 01:39:19;;;;;;;2.50;2.30;;;21.80;99.90;;;;;;5086958;28;20200;-82
2023/09/15 01:41:45;;;;;;;2.80;2.50;;;21.90;99.90;;;;;;5085382;28;20970;-82
2023/09/15 01:44:13;;;;;;;4.37;2.33;;;21.90;99.90;;;;;;5085297;28;20827;-82
2023/09/15 01:46:39;;;;;;;2.43;2.23;;;21.90;99.90;;;;;;5086529;28;20172;-82
2023/09/15 01:49:05;;;;;;;3.07;2.80;;;21.90;99.90;;;;;;5085207;28;20429;-81
2023/09/15 01:51:31;;;;;;;3.60;2.00;;;21.90;99.90;;;;;;5084422;28;20228;-80
2023/09/15 01:53:57;;;;;;;2.83;2.37;;;21.80;99.90;;;;;;5085081;28;20497;-81
2023/09/15 01:56:27;;;;;;;3.50;3.10;;;21.90;99.90;;;;;;5084763;28;20437;-81
2023/09/15 01:58:53;;;;;;;4.50;2.50;;;21.90;99.90;;;;;;5084496;28;20453;-82
2023/09/15 02:01:18;;;;;;;2.53;2.33;;;21.90;99.90;;;;;;5085047;28;20429;-82
2023/09/15 02:03:44;;;;;;;2.53;2.33;;;21.90;99.90;;;;;;5085832;28;20687;-82
2023/09/15 02:06:16;;;;;;;3.70;2.90;;;21.90;99.90;;;;;;5084161;28;20214;-81
2023/09/15 02:08:45;;;;;;;3.30;3.00;;;21.90;99.90;;;;;;5085002;28;20639;-81
2023/09/15 02:11:11;;;;;;;3.23;2.93;;;21.90;99.90;;;;;;5084512;28;20429;-80
2023/09/15 02:13:41;;;;;;;2.60;2.40;;;21.90;99.90;;;;;;5084698;28;20782;-82
2023/09/15 02:16:07;;;;;;;3.20;2.80;;;21.80;99.90;;;;;;5084758;28;20437;-81
2023/09/15 02:18:32;;;;;;;4.43;2.80;;;21.80;99.90;;;;;;5086091;28;20905;-81
2023/09/15 02:20:58;;;;;;;2.40;2.20;;;21.80;99.90;;;;;;5086046;28;20429;-82
2023/09/15 02:23:24;;;;;;;3.60;2.70;;;21.80;99.90;;;;;;5086168;28;20599;-82
2023/09/15 02:25:51;;;;;;;2.40;2.20;;;21.80;99.90;;;;;;5085702;28;20211;-81
2023/09/15 02:28:18;;;;;;;4.00;3.13;;;21.80;99.90;;;;;;5084120;28;20509;-82
2023/09/15 02:30:44;;;;;;;2.30;2.10;;;21.70;99.90;;;;;;5083700;28;20436;-80
2023/09/15 02:33:10;;;;;;;3.30;3.00;;;21.70;99.90;;;;;;5085681;28;20407;-81
2023/09/15 02:35:37;;;;;;;3.27;2.63;;;21.70;99.90;;;;;;5084222;28;20468;-81
2023/09/15 02:38:03;;;;;;;2.53;2.33;;;21.60;99.90;;;;;;5084384;28;20267;-82
2023/09/15 02:40:30;;;;;;;2.60;2.20;;;21.60;99.90;;;;;;5084159;28;20465;-80
2023/09/15 02:42:56;;;;;;;3.47;3.07;;;21.60;99.90;;;;;;5084356;28;20756;-80
2023/09/15 02:45:22;;;;;;;3.07;2.77;;;21.60;99.90;;;;;;5084179;28;20445;-81
2023/09/15 02:47:47;;;;;;;3.03;2.70;;;21.60;99.90;;;;;;5084487;28;20450;-82
2023/09/15 02:50:13;;;;;;;3.27;2.47;;;21.50;99.90;;;;;;5085255;28;20235;-82
2023/09/15 02:52:39;;;;;;;3.43;2.93;;;21.50;99.90;;;;;;5084397;28;20327;-82
2023/09/15 02:55:05;;;;;;;3.33;2.60;;;21.60;99.90;;;;;;5084290;28;20769;-82
2023/09/15 02:57:31;;;;;;;4.90;3.33;;;21.70;99.90;;;;;;5084378;28;20176;-81
2023/09/15 02:59:57;;;;;;;3.20;2.70;;;21.80;99.90;;;;;;5083880;28;20834;-81
2023/09/15 03:02:23;;;;;;;2.70;2.33;;;21.90;99.90;;;;;;5084372;28;20367;-82
2023/09/15 03:04:49;;;;;;;2.60;2.40;;;21.80;99.90;;;;;;5083995;28;20532;-82
2023/09/15 03:07:15;;;;;;;3.80;2.67;;;21.90;99.90;;;;;;5085536;28;20912;-81
2023/09/15 03:09:41;;;;;;;2.73;2.50;;;21.90;99.90;;;;;;5085521;28;20436;-82
2023/09/15 03:12:07;;;;;;;3.80;3.43;;;22.00;99.90;;;;;;5084185;28;20413;-81
2023/09/15 03:14:33;;;;;;;3.10;2.80;;;22.00;99.90;;;;;;5084171;28;21004;-82
2023/09/15 03:16:59;;;;;;;3.87;3.47;;;22.00;99.90;;;;;;5085473;28;20211;-82
2023/09/15 03:19:25;;;;;;;3.83;2.70;;;22.10;99.90;;;;;;5088167;28;20211;-81
2023/09/15 03:21:51;;;;;;;3.30;3.00;;;22.10;99.90;;;;;;5089025;28;20319;-81
2023/09/15 03:24:18;;;;;;;3.93;3.20;;;22.10;99.90;;;;;;5087885;28;20424;-81
2023/09/15 03:26:43;;;;;;;4.53;3.70;;;22.20;99.90;;;;;;5089292;28;20786;-82
2023/09/15 03:29:09;;;;;;;3.30;3.00;;;22.20;99.90;;;;;;5088486;28;20453;-82
2023/09/15 03:31:35;;;;;;;3.90;3.23;;;22.20;99.90;;;;;;5087544;28;20267;-82
2023/09/15 03:34:00;;;;;;;5.80;3.50;;;22.30;99.90;;;;;;5089434;28;20774;-82
2023/09/15 03:36:28;;;;;;;3.23;2.93;;;22.30;99.90;;;;;;5087601;28;20200;-82
2023/09/15 03:38:53;;;;;;;4.40;3.30;;;22.30;99.90;;;;;;5087538;28;20282;-82
2023/09/15 03:41:19;;;;;;;3.30;2.90;;;22.40;99.90;;;;;;5088726;28;20455;-81
2023/09/15 03:43:45;;;;;;;4.33;3.10;;;22.40;99.90;;;;;;5089346;28;20180;-82
2023/09/15 03:46:10;;;;;;;3.30;3.00;;;22.40;99.90;;;;;;5088920;28;20445;-82
2023/09/15 03:48:36;;;;;;;4.00;3.53;;;22.50;99.90;;;;;;5088968;28;20180;-81
2023/09/15 03:51:02;;;;;;;3.67;3.33;;;22.50;99.90;;;;;;5088321;28;20324;-81
2023/09/15 03:53:28;;;;;;;4.17;3.70;;;22.50;99.90;;;;;;5088910;28;20424;-81
2023/09/15 03:55:53;;;;;;;6.10;5.50;;;22.60;99.90;;;;;;5086508;28;20543;-81
2023/09/15 03:58:19;;;;;;;25.63;14.30;;;22.60;99.90;;;;;;5087498;28;20184;-82
2023/09/15 04:00:45;;;;;;;4.73;4.13;;;22.60;99.90;;;;;;5087911;28;20238;-81
2023/09/15 04:03:11;;;;;;;4.20;3.40;;;22.60;99.90;;;;;;5088773;28;20233;-81
2023/09/15 04:05:38;;;;;;;4.50;3.43;;;22.60;99.90;;;;;;5086939;28;20222;-80
2023/09/15 04:08:03;;;;;;;4.03;3.60;;;22.60;99.90;;;;;;5087116;28;20791;-82
2023/09/15 04:10:29;;;;;;;7.47;4.10;;;22.60;99.90;;;;;;5086787;28;20429;-82
2023/09/15 04:12:55;;;;;;;3.40;3.10;;;22.60;99.90;;;;;;5087012;28;20208;-82
2023/09/15 04:15:21;;;;;;;3.57;3.27;;;22.60;99.90;;;;;;5087778;28;21005;-81
2023/09/15 04:17:46;;;;;;;3.97;3.57;;;22.60;99.90;;;;;;5087054;28;20175;-81
2023/09/15 04:20:12;;;;;;;4.27;3.80;;;22.70;99.90;;;;;;5085933;28;20224;-82
2023/09/15 04:22:40;;;;;;;3.43;3.13;;;22.70;99.90;;;;;;5086342;28;20180;-81
2023/09/15 04:25:06;;;;;;;5.60;4.30;;;22.70;99.90;;;;;;5085711;28;20196;-82
2023/09/15 04:27:33;;;;;;;4.40;3.40;;;22.70;99.90;;;;;;5088095;28;20457;-81
2023/09/15 04:29:59;;;;;;;5.20;3.60;;;22.70;99.90;;;;;;5086869;28;20872;-80
2023/09/15 04:32:24;;;;;;;3.57;3.20;;;22.70;99.90;;;;;;5085545;28;20508;-82
2023/09/15 04:34:51;;;;;;;3.30;3.00;;;22.70;99.90;;;;;;5078554;28;20552;-82
2023/09/15 04:37:18;;;;;;;3.73;3.43;;;22.70;99.90;;;;;;5074165;28;20697;-81
2023/09/15 04:39:43;;;;;;;4.17;3.43;;;22.70;99.90;;;;;;5071712;28;20520;-82
2023/09/15 04:42:12;;;;;;;4.27;3.50;;;22.70;99.90;;;;;;5067495;28;20448;-81
2023/09/15 04:44:41;;;;;;;3.73;3.43;;;22.80;99.90;;;;;;5085402;28;20231;-82
2023/09/15 04:47:07;;;;;;;3.87;3.57;;;22.70;99.90;;;;;;5081846;28;20436;-82
2023/09/15 04:49:33;;;;;;;4.50;4.03;;;22.80;99.90;;;;;;5085597;28;20441;-82
2023/09/15 04:51:59;;;;;;;4.50;4.10;;;22.80;99.90;;;;;;5085040;28;20469;-81
2023/09/15 04:54:26;;;;;;;3.50;3.20;;;22.80;99.90;;;;;;5084046;28;20184;-81
2023/09/15 04:56:52;;;;;;;4.17;3.67;;;22.80;99.90;;;;;;5070802;28;20430;-82
2023/09/15 04:59:19;;;;;;;3.63;3.30;;;22.70;99.90;;;;;;5063378;28;20788;-81
2023/09/15 05:01:46;;;;;;;6.27;3.87;;;22.70;99.90;;;;;;5083234;28;20565;-81
2023/09/15 05:04:18;;;;;;;4.57;3.83;;;22.70;99.90;;;;;;5083362;28;20438;-81
2023/09/15 05:06:44;;;;;;;3.60;3.20;;;22.70;99.90;;;;;;5082295;28;20428;-80
2023/09/15 05:09:10;;;;;;;3.70;3.10;;;22.70;99.90;;;;;;5081585;28;20445;-80
2023/09/15 05:11:37;;;;;;;4.00;3.57;;;22.70;99.90;;;;;;5080258;28;20238;-81
2023/09/15 05:14:03;;;;;;;3.10;2.80;;;22.70;99.90;;;;;;5078548;28;20847;-81
2023/09/15 05:16:28;;;;;;;4.63;4.07;;;22.70;99.90;;;;;;5075356;28;20853;-80
2023/09/15 05:18:54;;;;;;;3.33;3.03;;;22.60;99.90;;;;;;5083399;28;20699;-81
2023/09/15 05:21:19;;;;;;;9.40;4.20;;;22.60;99.90;;;;;;5083922;28;20204;-82
2023/09/15 05:23:45;;;;;;;4.10;3.43;;;22.60;99.90;;;;;;5084765;28;20264;-81
2023/09/15 05:26:11;;;;;;;6.17;3.90;;;22.60;99.90;;;;;;5082307;28;20211;-81
2023/09/15 05:28:37;;;;;;;3.70;3.23;;;22.60;99.90;;;;;;5077245;28;20186;-80
2023/09/15 05:31:02;;;;;;;6.27;3.67;;;22.70;99.90;;;;;;5085088;28;20445;-81
2023/09/15 05:33:28;;;;;;;70.43;43.93;;;22.70;99.90;;;;;;5083938;28;20191;-81
2023/09/15 05:35:55;;;;;;;5.30;4.43;;;22.70;99.90;;;;;;5082814;28;20210;-80
2023/09/15 05:38:24;;;;;;;5.47;3.87;;;22.70;99.90;;;;;;5082949;28;20475;-81
2023/09/15 05:40:50;;;;;;;8.03;4.63;;;22.70;99.90;;;;;;5078834;28;20477;-82
2023/09/15 05:43:17;;;;;;;4.80;4.27;;;22.70;99.90;;;;;;5084210;28;20451;-82
2023/09/15 05:45:44;;;;;;;4.63;4.10;;;22.70;99.90;;;;;;5078263;28;20875;-81
2023/09/15 05:48:12;;;;;;;6.50;4.80;;;22.60;99.90;;;;;;5081209;28;20412;-81
2023/09/15 05:50:41;;;;;;;5.20;4.67;;;22.50;99.90;;;;;;5080583;28;20480;-82
2023/09/15 05:53:06;;;;;;;6.23;4.73;;;22.50;99.90;;;;;;5080415;28;20774;-82
2023/09/15 05:55:32;;;;;;;5.27;4.60;;;22.40;99.90;;;;;;5080228;28;20433;-82
2023/09/15 05:57:58;;;;;;;6.70;4.23;;;22.40;99.90;;;;;;5080759;28;20184;-80
2023/09/15 06:00:24;;;;;;;7.70;5.07;;;22.40;99.90;;;;;;5075147;28;20221;-80
2023/09/15 06:02:49;;;;;;;6.73;5.40;;;22.40;99.90;;;;;;5074979;28;20410;-81
2023/09/15 06:05:17;;;;;;;8.40;5.33;;;22.40;99.90;;;;;;5080821;28;20208;-80
2023/09/15 06:07:43;;;;;;;8.33;5.60;;;22.30;99.90;;;;;;5079021;28;20629;-80
2023/09/15 06:10:09;;;;;;;5.77;4.40;;;22.30;99.90;;;;;;5079623;28;20558;-82
2023/09/15 06:12:35;;;;;;;6.63;4.30;;;22.30;99.90;;;;;;5079539;28;20169;-80
2023/09/15 06:15:01;;;;;;;6.17;4.80;;;22.30;99.90;;;;;;5078136;28;20541;-81
2023/09/15 06:17:27;;;;;;;5.63;5.10;;;22.30;99.90;;;;;;5075001;28;20177;-81
2023/09/15 06:19:54;;;;;;;4.97;4.47;;;22.30;99.90;;;;;;5078424;28;20227;-80
2023/09/15 06:22:19;;;;;;;5.60;4.87;;;22.40;99.90;;;;;;5082998;28;20507;-81
2023/09/15 06:24:45;;;;;;;5.77;4.23;;;22.40;99.90;;;;;;5078303;28;21076;-81
2023/09/15 06:27:11;;;;;;;7.47;5.00;;;22.40;99.90;;;;;;5081634;28;20176;-80
2023/09/15 06:29:36;;;;;;;5.70;5.07;;;22.40;99.90;;;;;;5081996;28;20249;-80
2023/09/15 06:32:02;;;;;;;7.63;5.37;;;22.50;99.90;;;;;;5073366;28;20255;-82
2023/09/15 06:34:28;;;;;;;5.03;4.10;;;22.50;99.90;;;;;;5069506;28;20187;-80
2023/09/15 06:36:54;;;;;;;4.70;4.00;;;22.50;99.90;;;;;;5083263;28;20225;-81
2023/09/15 06:39:23;;;;;;;5.70;5.00;;;22.50;99.90;;;;;;5079558;28;20230;-80
2023/09/15 06:41:51;;;;;;;4.73;4.20;;;22.60;99.90;;;;;;5079552;28;20218;-80
2023/09/15 06:44:17;;;;;;;5.40;4.90;;;22.60;99.90;;;;;;5074610;28;20703;-80
2023/09/15 06:46:43;;;;;;;4.47;4.07;;;22.60;99.90;;;;;;5076245;28;20507;-82
2023/09/15 06:49:09;;;;;;;4.97;4.43;;;22.50;99.90;;;;;;5076797;28;20419;-80
2023/09/15 06:51:35;;;;;;;4.97;4.10;;;22.60;99.90;;;;;;5078058;28;20724;-80
2023/09/15 06:54:00;;;;;;;4.63;4.23;;;22.60;99.90;;;;;;5081116;28;20180;-80
2023/09/15 06:56:27;;;;;;;5.00;4.13;;;22.60;99.90;;;;;;5080897;28;20408;-80
2023/09/15 06:58:53;;;;;;;5.50;3.77;;;22.60;99.90;;;;;;5075567;28;20183;-81
2023/09/15 07:01:19;;;;;;;3.97;3.50;;;22.60;99.90;;;;;;5082475;28;20453;-82
2023/09/15 07:03:45;;;;;;;4.10;3.57;;;22.60;99.90;;;;;;5084910;28;20713;-83
2023/09/15 07:06:11;;;;;;;4.03;3.60;;;22.60;99.90;;;;;;5085093;28;20199;-82
2023/09/15 07:08:36;;;;;;;4.50;3.60;;;22.60;99.90;;;;;;5084425;28;20184;-81
2023/09/15 07:11:02;;;;;;;4.70;4.20;;;22.60;99.90;;;;;;5083239;28;20426;-83
2023/09/15 07:13:28;;;;;;;4.70;4.30;;;22.60;99.90;;;;;;5086664;28;20200;-83
2023/09/15 07:15:53;;;;;;;4.80;4.30;;;22.60;99.90;;;;;;5081938;28;20442;-83
2023/09/15 07:18:19;;;;;;;4.23;3.83;;;22.60;99.90;;;;;;5085421;28;20253;-81
2023/09/15 07:20:44;;;;;;;4.30;3.63;;;22.60;99.90;;;;;;5085482;28;20261;-83
2023/09/15 07:23:10;;;;;;;6.13;4.07;;;22.70;99.90;;;;;;5083893;28;20179;-82
2023/09/15 07:25:36;;;;;;;4.30;3.90;;;22.60;99.90;;;;;;5081674;28;20227;-82
2023/09/15 07:28:03;;;;;;;3.87;3.20;;;22.70;99.90;;;;;;5083601;28;20331;-83
2023/09/15 07:30:30;;;;;;;4.07;3.73;;;22.70;99.90;;;;;;5074609;28;20291;-82
2023/09/15 07:32:56;;;;;;;4.73;3.90;;;22.70;99.90;;;;;;5078004;28;20816;-81
2023/09/15 07:35:22;;;;;;;4.73;4.33;;;22.70;99.90;;;;;;5080888;28;20486;-83
2023/09/15 07:37:48;;;;;;;7.47;5.00;;;22.80;99.90;;;;;;5084412;28;21089;-83
2023/09/15 07:40:14;;;;;;;5.03;4.53;;;22.80;99.90;;;;;;5084668;28;20514;-83
2023/09/15 07:42:40;;;;;;;5.57;4.70;;;22.90;99.90;;;;;;5084418;28;20913;-81
2023/09/15 07:45:06;;;;;;;4.43;3.63;;;22.90;99.90;;;;;;5084331;28;20280;-81
2023/09/15 07:47:33;;;;;;;5.20;4.57;;;22.90;99.90;;;;;;5083111;28;20492;-81
2023/09/15 07:49:59;;;;;;;5.93;4.87;;;23.00;99.90;;;;;;5084130;28;20476;-81
2023/09/15 07:52:26;;;;;;;5.00;4.03;;;23.00;99.90;;;;;;5084017;28;20410;-81
2023/09/15 07:54:52;;;;;;;6.00;4.80;;;23.10;99.90;;;;;;5085596;28;20478;-82
2023/09/15 07:57:18;;;;;;;5.80;5.00;;;23.10;99.90;;;;;;5086410;28;20414;-82
2023/09/15 07:59:43;;;;;;;4.87;4.37;;;23.20;99.90;;;;;;5101560;28;20727;-81
2023/09/15 08:02:09;;;;;;;5.27;4.77;;;23.20;99.90;;;;;;5086157;28;20506;-81
2023/09/15 08:04:35;;;;;;;5.80;4.90;;;23.30;99.90;;;;;;5084216;28;20682;-82
2023/09/15 08:07:02;;;;;;;4.77;4.27;;;23.40;99.90;;;;;;5083629;28;20275;-80
2023/09/15 08:09:29;;;;;;;4.30;3.90;;;23.40;99.90;;;;;;5085102;28;20194;-80
2023/09/15 08:11:59;;;;;;;4.90;4.20;;;23.50;99.90;;;;;;5081234;28;20695;-80
2023/09/15 08:14:28;;;;;;;8.13;5.23;;;23.50;99.90;;;;;;5083493;28;20470;-80
2023/09/15 08:16:53;;;;;;;5.13;4.63;;;23.60;99.90;;;;;;5084529;28;20953;-82
2023/09/15 08:19:20;;;;;;;4.37;3.97;;;23.70;99.90;;;;;;5083388;28;20457;-82
2023/09/15 08:21:46;;;;;;;3.40;3.10;;;23.70;99.90;;;;;;5078660;28;20547;-82
2023/09/15 08:24:12;;;;;;;4.00;3.30;;;23.70;99.90;;;;;;5075672;28;20582;-81
2023/09/15 08:26:38;;;;;;;3.80;3.40;;;23.70;99.90;;;;;;5066302;28;21314;-83
2023/09/15 08:29:05;;;;;;;3.07;2.77;;;23.80;99.90;;;;;;5071328;28;20585;-82
2023/09/15 08:31:31;;;;;;;3.30;3.10;;;23.80;99.90;;;;;;5064604;28;21015;-82
2023/09/15 08:33:57;;;;;;;3.93;3.50;;;23.80;99.90;;;;;;5066864;28;20784;-80
2023/09/15 08:36:24;;;;;;;4.03;3.30;;;23.80;99.90;;;;;;5076714;28;20421;-82
2023/09/15 08:38:50;;;;;;;3.40;3.00;;;23.80;99.90;;;;;;5079270;28;20217;-82
2023/09/15 08:41:32;;;;;;;2.93;2.70;;;23.90;99.90;;;;;;5076294;28;20475;-82
2023/09/15 08:43:58;;;;;;;3.40;3.10;;;24.00;99.90;;;;;;5075328;28;20429;-81
2023/09/15 08:46:25;;;;;;;3.30;2.87;;;24.00;99.90;;;;;;5077290;28;20535;-83
2023/09/15 08:48:54;;;;;;;3.03;2.73;;;24.10;99.90;;;;;;5078764;28;20476;-83
2023/09/15 08:51:21;;;;;;;2.77;2.53;;;24.10;99.90;;;;;;5076672;28;20714;-82
2023/09/15 08:53:47;;;;;;;3.53;3.23;;;24.20;99.90;;;;;;5071756;28;20988;-80
2023/09/15 08:56:14;;;;;;;3.60;3.00;;;24.30;99.90;;;;;;5072341;28;20438;-80
2023/09/15 08:58:40;;;;;;;2.90;2.70;;;24.30;99.90;;;;;;5080506;28;20450;-80
2023/09/15 09:01:08;;;;;;;4.27;3.33;;;24.40;99.90;;;;;;5078958;28;20473;-82
2023/09/15 09:03:38;;;;;;;3.73;3.43;;;24.40;99.90;;;;;;5069199;28;20470;-82
2023/09/15 09:06:09;;;;;;;3.43;3.13;;;24.50;99.90;;;;;;5069635;28;20444;-82
2023/09/15 09:08:37;;;;;;;3.10;2.90;;;24.50;99.90;;;;;;5074243;28;20444;-81
2023/09/15 09:11:03;;;;;;;4.67;3.43;;;24.60;99.90;;;;;;5080418;28;20443;-81
2023/09/15 09:13:29;;;;;;;3.40;3.10;;;24.60;99.90;;;;;;5080770;28;20428;-83
2023/09/15 09:15:55;;;;;;;3.43;2.60;;;24.60;99.90;;;;;;5089624;28;20443;-81
2023/09/15 09:18:20;;;;;;;2.70;2.50;;;24.70;99.90;;;;;;5073584;28;20260;-82
2023/09/15 09:20:49;;;;;;;4.37;2.97;;;24.70;99.90;;;;;;5082963;28;20494;-83
2023/09/15 09:23:18;;;;;;;3.30;3.00;;;24.70;99.90;;;;;;5084710;28;20191;-83
2023/09/15 09:25:45;;;;;;;2.80;2.60;;;24.70;99.90;;;;;;5084280;28;20432;-81
2023/09/15 09:28:12;;;;;;;2.97;2.77;;;24.70;99.90;;;;;;5082157;28;20415;-81
2023/09/15 09:30:37;;;;;;;2.80;2.60;;;24.80;99.90;;;;;;5078342;28;20447;-83
2023/09/15 09:33:05;;;;;;;2.70;2.50;;;24.80;99.90;;;;;;5078199;28;20416;-81
2023/09/15 09:35:31;;;;;;;2.77;2.50;;;24.80;99.90;;;;;;5078124;28;20195;-80
2023/09/15 09:38:00;;;;;;;3.87;2.97;;;24.70;99.90;;;;;;5080720;28;20424;-83
2023/09/15 09:40:26;;;;;;;3.27;2.97;;;24.80;99.90;;;;;;5080683;28;21196;-81
2023/09/15 09:42:55;;;;;;;3.80;3.20;;;24.80;99.90;;;;;;5079415;28;20444;-81
2023/09/15 09:45:26;;;;;;;3.37;2.80;;;24.80;99.90;;;;;;5081290;28;20524;-83
2023/09/15 09:47:53;;;;;;;2.87;2.57;;;24.90;99.90;;;;;;5073151;28;20818;-81
2023/09/15 09:50:20;;;;;;;3.20;2.90;;;24.90;99.90;;;;;;5075083;28;20508;-82
2023/09/15 09:52:46;;;;;;;3.20;2.87;;;24.90;99.90;;;;;;5075417;28;20423;-81
2023/09/15 09:55:12;;;;;;;3.00;2.70;;;24.90;99.90;;;;;;5076877;28;20487;-82
2023/09/15 09:57:39;;;;;;;2.80;2.60;;;24.90;99.90;;;;;;5080434;28;20685;-83
2023/09/15 10:00:09;;;;;;;2.77;2.57;;;25.00;99.90;;;;;;5081017;28;20495;-83
2023/09/15 10:02:36;;;;;;;3.00;2.80;;;25.00;99.90;;;;;;5078788;28;20436;-81
2023/09/15 10:05:03;;;;;;;3.10;2.80;;;25.00;99.90;;;;;;5081233;28;20456;-82
2023/09/15 10:07:30;;;;;;;2.43;2.23;;;25.10;99.90;;;;;;5079932;28;20440;-81
2023/09/15 10:09:56;;;;;;;3.40;3.03;;;25.10;99.90;;;;;;5079508;28;20511;-81
2023/09/15 10:12:23;;;;;;;2.90;2.70;;;25.10;99.90;;;;;;5076856;28;20589;-81
2023/09/15 10:14:50;;;;;;;2.90;2.70;;;25.20;99.90;;;;;;5092495;28;21052;-81
2023/09/15 10:17:18;;;;;;;3.13;2.47;;;25.20;99.90;;;;;;5080193;28;20945;-81
2023/09/15 10:19:46;;;;;;;2.50;2.30;;;25.30;99.90;;;;;;5082104;28;20645;-80
2023/09/15 10:22:12;;;;;;;4.10;2.43;;;25.30;99.90;;;;;;5079890;28;20519;-83
2023/09/15 10:24:47;;;;;;;3.17;2.87;;;25.30;99.90;;;;;;5075287;28;20490;-82
2023/09/15 10:27:14;;;;;;;3.10;2.87;;;25.30;99.90;;;;;;5081378;28;20413;-81
2023/09/15 10:29:46;;;;;;;2.93;2.70;;;25.40;99.90;;;;;;5077672;28;20448;-83
2023/09/15 10:32:19;;;;;;;3.07;2.87;;;25.50;99.90;;;;;;5077226;28;20437;-82
2023/09/15 10:34:47;;;;;;;3.03;2.83;;;25.50;99.90;;;;;;5076618;28;20513;-82
2023/09/15 10:37:13;;;;;;;3.17;2.93;;;25.50;99.90;;;;;;5073271;28;20481;-82
2023/09/15 10:39:41;;;;;;;3.10;2.80;;;25.60;99.90;;;;;;5076109;28;20484;-83
2023/09/15 10:42:13;;;;;;;3.30;3.00;;;25.60;99.90;;;;;;5075822;28;20428;-81
2023/09/15 10:44:40;;;;;;;3.00;2.70;;;25.70;99.90;;;;;;5075060;28;20461;-83
2023/09/15 10:47:16;;;;;;;2.37;2.17;;;25.70;99.90;;;;;;5077226;28;20416;-81
2023/09/15 10:49:50;;;;;;;2.33;2.13;;;25.80;99.90;;;;;;5070826;28;20572;-82
2023/09/15 10:52:16;;;;;;;2.60;2.40;;;25.80;99.90;;;;;;5075052;28;21172;-82
2023/09/15 10:54:42;;;;;;;3.27;2.80;;;25.80;99.90;;;;;;5071871;28;20499;-83
2023/09/15 10:57:08;;;;;;;3.03;2.60;;;25.90;99.90;;;;;;5069717;28;20286;-82
2023/09/15 10:59:36;;;;;;;2.93;2.63;;;25.90;99.90;;;;;;5068601;28;20230;-82
2023/09/15 11:02:02;;;;;;;3.10;2.20;;;25.90;99.90;;;;;;5069373;28;21008;-83
2023/09/15 11:04:29;;;;;;;2.37;2.17;;;26.00;99.90;;;;;;5069624;28;20987;-83
2023/09/15 11:06:55;;;;;;;2.60;2.30;;;26.00;99.90;;;;;;5074112;28;20397;-81
2023/09/15 11:09:25;;;;;;;3.27;2.23;;;26.00;99.90;;;;;;5069672;28;20456;-81
2023/09/15 11:11:53;;;;;;;2.87;2.57;;;26.00;99.90;;;;;;5076476;28;20420;-80
2023/09/15 11:14:20;;;;;;;2.40;2.20;;;26.10;99.90;;;;;;5078439;28;20741;-81
2023/09/15 11:16:51;;;;;;;2.40;2.20;;;26.10;99.90;;;;;;5078113;28;20613;-82
2023/09/15 11:19:19;;;;;;;2.57;2.37;;;26.20;99.90;;;;;;5080500;28;20571;-83
2023/09/15 11:21:46;;;;;;;2.83;2.43;;;26.20;99.90;;;;;;5077964;28;20413;-81
2023/09/15 11:24:12;;;;;;;2.63;2.43;;;26.30;99.90;;;;;;5077720;28;20445;-82
2023/09/15 11:26:48;;;;;;;2.40;2.20;;;26.30;99.90;;;;;;5080850;28;20416;-83
2023/09/15 11:29:17;;;;;;;2.57;2.37;;;26.40;99.90;;;;;;5075437;28;20433;-81
2023/09/15 11:31:44;;;;;;;3.67;2.47;;;26.40;99.90;;;;;;5071828;28;21076;-82
2023/09/15 11:34:14;;;;;;;2.13;2.03;;;26.40;99.90;;;;;;5073580;28;20445;-82
2023/09/15 11:36:41;;;;;;;2.50;2.30;;;26.40;99.90;;;;;;5070414;28;20413;-83
2023/09/15 11:39:11;;;;;;;2.73;2.53;;;26.50;99.90;;;;;;5083209;28;20904;-81
2023/09/15 11:41:44;;;;;;;2.60;2.40;;;26.60;99.90;;;;;;5080227;28;20911;-81
2023/09/15 11:44:11;;;;;;;2.57;2.33;;;26.50;99.90;;;;;;5072161;28;20440;-83
2023/09/15 11:46:38;;;;;;;2.50;2.30;;;26.60;99.90;;;;;;5082444;28;20689;-82
2023/09/15 11:49:04;;;;;;;2.87;2.67;;;26.50;99.90;;;;;;5077049;28;20812;-83
2023/09/15 11:51:30;;;;;;;2.10;1.90;;;26.50;99.90;;;;;;5081335;28;20467;-82
2023/09/15 11:53:59;;;;;;;2.57;2.37;;;26.50;99.90;;;;;;5077145;28;20881;-82
2023/09/15 11:56:29;;;;;;;2.97;2.40;;;26.60;99.90;;;;;;5083888;28;20431;-81
2023/09/15 11:58:54;;;;;;;2.90;2.70;;;26.60;99.90;;;;;;5083691;28;20448;-83
2023/09/15 12:01:21;;;;;;;2.93;2.60;;;26.60;99.90;;;;;;5082535;28;20972;-81
2023/09/15 12:03:51;;;;;;;2.20;2.03;;;26.50;99.90;;;;;;5081362;28;20181;-82
2023/09/15 12:06:19;;;;;;;2.23;2.03;;;26.50;99.90;;;;;;5080982;28;20836;-81
2023/09/15 12:08:47;;;;;;;2.57;2.37;;;26.50;99.90;;;;;;5074832;28;20613;-81
2023/09/15 12:11:14;;;;;;;3.30;2.20;;;26.60;99.90;;;;;;5076852;28;20437;-82
2023/09/15 12:13:41;;;;;;;2.50;2.10;;;26.60;99.90;;;;;;5081960;28;20973;-81
2023/09/15 12:16:14;;;;;;;2.53;2.33;;;26.60;99.90;;;;;;5082439;28;20451;-83
2023/09/15 12:18:40;;;;;;;2.33;2.20;;;26.60;99.90;;;;;;5083068;28;21004;-81
2023/09/15 12:21:14;;;;;;;2.37;2.13;;;26.60;99.90;;;;;;5082110;28;20511;-81
2023/09/15 12:23:40;;;;;;;2.50;2.30;;;26.60;99.90;;;;;;5081584;28;20436;-81
2023/09/15 12:26:06;;;;;;;2.40;2.20;;;26.60;99.90;;;;;;5077816;28;20451;-82
2023/09/15 12:28:32;;;;;;;2.10;2.00;;;26.60;99.90;;;;;;5080786;28;20551;-82
2023/09/15 12:31:01;;;;;;;2.00;1.90;;;26.60;99.90;;;;;;5080908;28;20685;-81
2023/09/15 12:33:29;;;;;;;3.10;2.10;;;26.60;99.90;;;;;;5078710;28;21204;-81
2023/09/15 12:35:58;;;;;;;2.60;2.40;;;26.60;99.90;;;;;;5080700;28;20997;-81
2023/09/15 12:38:23;;;;;;;2.10;1.90;;;26.70;99.90;;;;;;5082514;28;20437;-83
2023/09/15 12:40:50;;;;;;;2.03;1.93;;;26.70;99.90;;;;;;5080732;28;20583;-81
2023/09/15 12:43:17;;;;;;;2.10;1.73;;;26.70;99.90;;;;;;5079669;28;20193;-81
2023/09/15 12:45:42;;;;;;;2.30;2.10;;;26.80;99.90;;;;;;5077472;28;20457;-82